Time;durP1;ratioP1;P1;durP2;ratioP2;P2;SDS_P1;SDS_P2;PMS_P1;PMS_P2;Temp;Humidity;BMP_temperature;BMP_pressure;BME280_temperature;BME280_humidity;BME280_pressure;Samples;Min_cycle;Max_cycle;Signal;HPM_P1;HPM_P2
2022/06/19 00:00:11;;;;;;;5.40;3.70;;;;;;;15.67;69.99;94379.81;5085645;28;20016;-90
2022/06/19 00:02:39;;;;;;;8.68;4.10;;;;;;;15.67;70.62;94390.56;5087006;28;20101;-90
2022/06/19 00:05:05;;;;;;;9.65;4.15;;;;;;;15.68;70.80;94391.34;5085832;28;20020;-91
2022/06/19 00:07:30;;;;;;;13.45;4.60;;;;;;;15.68;71.04;94385.97;5086480;28;20030;-90
2022/06/19 00:09:56;;;;;;;8.13;3.75;;;;;;;15.68;70.79;94389.44;5086645;28;20024;-91
2022/06/19 00:12:22;;;;;;;8.77;4.53;;;;;;;15.64;70.87;94389.31;5085594;28;20101;-90
2022/06/19 00:14:47;;;;;;;10.05;4.13;;;;;;;15.68;71.00;94397.50;5086385;28;20024;-91
2022/06/19 00:17:16;;;;;;;9.45;3.75;;;;;;;15.62;70.77;94390.78;5086582;28;20023;-93
2022/06/19 00:19:42;;;;;;;6.28;3.72;;;;;;;15.60;70.68;94387.63;5086343;28;20024;-91
2022/06/19 00:22:08;;;;;;;6.43;4.00;;;;;;;15.55;70.95;94396.69;5086761;28;20043;-90
2022/06/19 00:24:34;;;;;;;7.82;3.30;;;;;;;15.52;70.65;94383.13;5086647;28;20025;-91
2022/06/19 00:26:59;;;;;;;6.93;3.53;;;;;;;15.51;70.25;94390.41;5086437;28;20047;-91
2022/06/19 00:29:27;;;;;;;5.72;3.40;;;;;;;15.51;70.06;94397.66;5086637;28;20038;-90
2022/06/19 00:31:54;;;;;;;11.05;3.58;;;;;;;15.48;70.37;94391.06;5085188;28;20035;-90
2022/06/19 00:34:20;;;;;;;4.20;3.17;;;;;;;15.47;70.47;94391.38;5086286;28;20032;-91
2022/06/19 00:36:49;;;;;;;6.60;3.63;;;;;;;15.43;69.65;94405.50;5086200;28;20050;-91
2022/06/19 00:39:16;;;;;;;10.60;2.90;;;;;;;15.41;69.19;94390.84;5085972;28;20025;-91
2022/06/19 00:41:41;;;;;;;8.18;3.13;;;;;;;15.36;69.06;94399.84;5085250;28;20028;-90
2022/06/19 00:44:10;;;;;;;5.40;3.00;;;;;;;15.38;69.15;94394.16;5086325;28;20032;-90
2022/06/19 00:46:46;;;;;;;6.88;3.75;;;;;;;15.35;69.27;94395.63;5086097;28;20095;-91
2022/06/19 00:49:18;;;;;;;8.85;3.53;;;;;;;15.36;69.71;94394.47;5084650;28;20100;-89
2022/06/19 00:51:43;;;;;;;;;;;;;;;15.35;69.54;94390.25;5086512;28;20024;-91
2022/06/19 00:54:13;;;;;;;10.25;3.50;;;;;;;15.29;70.26;94405.00;5086111;28;20217;-90
2022/06/19 00:56:39;;;;;;;6.93;3.30;;;;;;;15.25;70.45;94396.03;5085891;28;20033;-90
2022/06/19 00:59:06;;;;;;;10.10;2.88;;;;;;;15.24;70.65;94402.50;5085920;28;20035;-91
2022/06/19 01:01:32;;;;;;;8.00;2.53;;;;;;;15.21;70.10;94397.78;5085635;28;20073;-90
2022/06/19 01:04:15;;;;;;;6.25;2.88;;;;;;;15.18;69.54;94393.06;5085817;28;20016;-90
2022/06/19 01:06:40;;;;;;;5.43;3.13;;;;;;;15.16;69.67;94390.72;5085702;28;20047;-91
2022/06/19 01:09:06;;;;;;;5.63;2.95;;;;;;;15.17;70.48;94388.81;5085605;28;20020;-91
2022/06/19 01:11:35;;;;;;;9.43;3.08;;;;;;;15.17;70.20;94386.91;5085327;28;20020;-92
2022/06/19 01:14:02;;;;;;;5.20;3.00;;;;;;;15.19;69.95;94383.91;5085419;28;20214;-91
2022/06/19 01:16:28;;;;;;;6.22;2.78;;;;;;;15.18;69.96;94390.38;5085302;28;20091;-90
2022/06/19 01:18:54;;;;;;;3.92;2.95;;;;;;;15.17;70.13;94399.56;5085286;28;20016;-91
2022/06/19 01:21:30;;;;;;;5.32;3.35;;;;;;;15.18;70.13;94393.06;5085430;28;20311;-90
2022/06/19 01:24:25;;;;;;;7.30;3.05;;;;;;;15.12;70.32;94389.00;5085403;28;20036;-90
2022/06/19 01:26:55;;;;;;;12.93;2.90;;;;;;;15.10;70.75;94385.88;5084554;28;20337;-90
2022/06/19 01:29:20;;;;;;;9.02;2.85;;;;;;;15.09;70.98;94387.00;5085615;28;20048;-90
2022/06/19 01:31:54;;;;;;;6.90;3.20;;;;;;;15.08;71.10;94393.47;5085933;28;20028;-91
2022/06/19 01:34:29;;;;;;;5.20;3.40;;;;;;;14.99;70.97;94390.84;5084987;28;20097;-91
2022/06/19 01:37:07;;;;;;;5.88;3.15;;;;;;;14.98;71.02;94390.06;5084982;28;20051;-90
2022/06/19 01:39:40;;;;;;;12.55;3.40;;;;;;;14.91;71.23;94384.44;5085414;28;20024;-90
2022/06/19 01:42:07;;;;;;;5.20;3.17;;;;;;;14.86;71.37;94381.97;5085385;28;20025;-90
2022/06/19 01:44:34;;;;;;;7.28;3.22;;;;;;;14.87;71.48;94388.09;5085151;28;20044;-89
2022/06/19 01:46:59;;;;;;;6.80;3.25;;;;;;;14.87;71.54;94388.88;5083863;28;20377;-91
2022/06/19 01:49:25;;;;;;;8.73;3.10;;;;;;;14.86;71.73;94381.97;5085068;28;20024;-91
2022/06/19 01:51:51;;;;;;;4.10;3.15;;;;;;;14.81;71.89;94388.28;5084990;28;20065;-90
2022/06/19 01:54:26;;;;;;;3.92;2.88;;;;;;;14.83;72.09;94404.06;5084517;28;20142;-90
2022/06/19 01:56:54;;;;;;;11.80;3.15;;;;;;;14.82;71.70;94394.47;5084555;28;20040;-91
2022/06/19 01:59:22;;;;;;;7.75;3.08;;;;;;;14.82;71.85;94386.41;5084571;28;20027;-88
2022/06/19 02:01:51;;;;;;;8.50;4.00;;;;;;;14.78;71.75;94388.94;5084606;28;20078;-90
2022/06/19 02:04:16;;;;;;;7.75;3.97;;;;;;;14.74;71.60;94400.66;5084271;28;20024;-91
2022/06/19 02:06:46;;;;;;;5.93;3.20;;;;;;;14.76;71.31;94387.72;5083352;28;20016;-90
2022/06/19 02:09:13;;;;;;;4.18;2.50;;;;;;;14.78;71.04;94394.31;5084600;28;20353;-90
2022/06/19 02:11:39;;;;;;;4.18;3.08;;;;;;;14.76;71.24;94391.19;5083195;28;20020;-89
2022/06/19 02:14:07;;;;;;;6.13;2.90;;;;;;;14.76;71.06;94387.72;5084056;28;20016;-90
2022/06/19 02:16:35;;;;;;;4.70;3.03;;;;;;;14.71;71.38;94390.56;5084070;28;20099;-90
2022/06/19 02:19:00;;;;;;;10.73;3.50;;;;;;;14.73;71.13;94394.50;5084269;28;20036;-89
2022/06/19 02:21:33;;;;;;;5.70;3.10;;;;;;;14.69;71.17;94393.56;5084009;28;20337;-90
2022/06/19 02:23:59;;;;;;;4.45;3.05;;;;;;;14.68;71.00;94401.97;5083791;28;20051;-90
2022/06/19 02:26:24;;;;;;;11.00;3.58;;;;;;;14.64;70.86;94397.25;5083940;28;20315;-90
2022/06/19 02:28:51;;;;;;;7.68;3.33;;;;;;;14.63;70.77;94403.72;5083757;28;20130;-90
2022/06/19 02:31:18;;;;;;;11.15;3.47;;;;;;;14.61;70.85;94405.16;5082659;28;20351;-90
2022/06/19 02:33:54;;;;;;;6.43;3.20;;;;;;;14.55;70.95;94404.53;5083752;28;20044;-92
2022/06/19 02:36:56;;;;;;;7.05;3.67;;;;;;;14.48;71.58;94401.56;5083768;28;20028;-89
2022/06/19 02:39:55;;;;;;;5.63;3.38;;;;;;;14.45;71.80;94399.53;5072491;28;20032;-89
2022/06/19 02:42:20;;;;;;;5.32;3.55;;;;;;;14.47;71.85;94412.59;5079835;28;20028;-90
2022/06/19 02:44:51;;;;;;;7.88;3.33;;;;;;;14.43;72.27;94407.91;5083580;28;20031;-89
2022/06/19 02:47:17;;;;;;;5.55;3.10;;;;;;;14.42;72.34;94410.91;5083508;28;20066;-88
2022/06/19 02:49:42;;;;;;;7.55;3.20;;;;;;;14.43;72.04;94404.41;5083692;28;20017;-91
2022/06/19 02:52:11;;;;;;;15.95;4.63;;;;;;;14.42;72.23;94410.91;5083892;28;20196;-89
2022/06/19 02:54:36;;;;;;;5.57;3.40;;;;;;;14.40;72.40;94411.22;5083267;28;20027;-89
2022/06/19 02:57:03;;;;;;;4.80;3.38;;;;;;;14.38;72.38;94407.31;5083414;28;20297;-89
2022/06/19 02:59:29;;;;;;;8.05;4.30;;;;;;;14.36;72.55;94412.19;5083485;28;20017;-90
2022/06/19 03:01:54;;;;;;;5.15;3.25;;;;;;;14.35;72.93;94410.63;5083410;28;20017;-90
2022/06/19 03:04:32;;;;;;;6.88;3.13;;;;;;;14.33;72.84;94419.00;5082435;28;20016;-90
2022/06/19 03:06:57;;;;;;;7.15;3.38;;;;;;;14.33;72.71;94420.88;5083367;28;20070;-90
2022/06/19 03:09:23;;;;;;;7.50;3.15;;;;;;;14.31;72.75;94425.78;5083641;28;20096;-89
2022/06/19 03:11:48;;;;;;;5.10;3.60;;;;;;;14.30;73.00;94425.00;5082164;28;20199;-89
2022/06/19 03:14:14;;;;;;;4.90;3.75;;;;;;;14.29;73.09;94430.66;5083536;28;20044;-90
2022/06/19 03:16:39;;;;;;;7.55;3.05;;;;;;;14.28;73.13;94429.91;5083359;28;20039;-90
2022/06/19 03:19:05;;;;;;;8.73;4.65;;;;;;;14.32;73.32;94427.38;5083375;28;20032;-89
2022/06/19 03:21:30;;;;;;;7.97;3.60;;;;;;;14.35;73.05;94432.06;5083989;28;20024;-89
2022/06/19 03:23:56;;;;;;;12.93;3.92;;;;;;;14.37;72.92;94429.84;5083641;28;20031;-89
2022/06/19 03:26:22;;;;;;;10.35;3.42;;;;;;;14.42;72.75;94440.41;5083889;28;20031;-91
2022/06/19 03:28:47;;;;;;;5.20;3.17;;;;;;;14.44;73.01;94435.50;5083669;28;20047;-91
2022/06/19 03:31:18;;;;;;;5.55;3.80;;;;;;;14.49;72.72;94435.34;5083802;28;20070;-91
2022/06/19 03:33:43;;;;;;;5.78;3.28;;;;;;;14.52;72.90;94432.00;5083698;28;20265;-89
2022/06/19 03:36:09;;;;;;;9.70;4.13;;;;;;;14.53;73.27;94422.84;5083256;28;20025;-91
2022/06/19 03:38:34;;;;;;;7.95;3.47;;;;;;;14.60;73.16;94428.50;5083189;28;20027;-90
2022/06/19 03:41:00;;;;;;;7.28;3.85;;;;;;;14.68;72.91;94439.53;5083315;28;20215;-90
2022/06/19 03:43:25;;;;;;;13.93;5.45;;;;;;;14.72;73.02;94419.78;5083402;28;20027;-90
2022/06/19 03:45:51;;;;;;;9.05;4.38;;;;;;;14.78;73.22;94417.69;5083080;28;20013;-91
2022/06/19 03:48:16;;;;;;;9.13;4.82;;;;;;;14.82;73.54;94414.03;5082828;28;20302;-90
2022/06/19 03:50:42;;;;;;;13.00;5.20;;;;;;;14.84;73.53;94411.03;5082886;28;20028;-89
2022/06/19 03:53:08;;;;;;;7.25;5.18;;;;;;;14.89;73.75;94410.81;5083001;28;20083;-90
2022/06/19 03:55:34;;;;;;;9.45;4.50;;;;;;;14.96;73.79;94413.78;5081819;28;20025;-89
2022/06/19 03:58:00;;;;;;;10.65;5.47;;;;;;;15.04;73.58;94414.81;5082814;28;20020;-90
2022/06/19 04:00:26;;;;;;;9.30;5.50;;;;;;;15.11;73.75;94408.94;5083034;28;20031;-90
2022/06/19 04:02:51;;;;;;;9.90;5.85;;;;;;;15.18;73.71;94409.19;5082849;28;20095;-90
2022/06/19 04:05:18;;;;;;;8.88;6.20;;;;;;;15.25;73.54;94420.97;5083239;28;20017;-90
2022/06/19 04:07:49;;;;;;;9.05;6.22;;;;;;;15.32;73.49;94420.44;5087107;28;20034;-91
2022/06/19 04:10:17;;;;;;;14.90;5.90;;;;;;;15.40;72.86;94416.88;5087263;28;20279;-92
2022/06/19 04:12:43;;;;;;;10.52;7.15;;;;;;;15.44;72.98;94417.78;5086940;28;20326;-91
2022/06/19 04:15:11;;;;;;;7.43;5.90;;;;;;;15.52;72.70;94421.53;5086728;28;20047;-91
2022/06/19 04:17:37;;;;;;;13.82;7.45;;;;;;;15.56;72.34;94424.34;5086849;28;20039;-91
2022/06/19 04:20:04;;;;;;;13.43;6.45;;;;;;;15.58;71.99;94425.56;5087111;28;20092;-91
2022/06/19 04:22:30;;;;;;;11.73;6.82;;;;;;;15.60;71.97;94425.25;5086688;28;20062;-91
2022/06/19 04:24:55;;;;;;;10.38;7.70;;;;;;;15.56;72.36;94425.13;5086708;28;20226;-90
2022/06/19 04:27:21;;;;;;;11.85;7.78;;;;;;;15.52;72.45;94429.59;5086739;28;20047;-90
2022/06/19 04:29:46;;;;;;;18.10;8.40;;;;;;;15.50;72.46;94433.72;5085507;28;20050;-91
2022/06/19 04:32:13;;;;;;;12.20;8.23;;;;;;;15.49;72.59;94430.25;5086802;28;20017;-90
2022/06/19 04:34:38;;;;;;;13.35;7.20;;;;;;;15.53;72.59;94423.09;5086711;28;20055;-89
2022/06/19 04:37:04;;;;;;;13.98;8.25;;;;;;;15.55;72.37;94436.19;5086271;28;20096;-91
2022/06/19 04:39:29;;;;;;;11.98;8.90;;;;;;;15.51;72.57;94427.22;5086268;28;20031;-91
2022/06/19 04:41:54;;;;;;;12.65;8.38;;;;;;;15.54;72.65;94427.34;5086483;28;20026;-92
2022/06/19 04:44:21;;;;;;;12.57;8.63;;;;;;;15.56;72.62;94435.88;5086216;28;20315;-90
2022/06/19 04:46:47;;;;;;;13.60;9.00;;;;;;;15.58;72.35;94432.84;5084922;28;20021;-90
2022/06/19 04:49:14;;;;;;;14.23;9.25;;;;;;;15.62;72.32;94436.44;5084961;28;20020;-90
2022/06/19 04:51:40;;;;;;;17.02;9.55;;;;;;;15.56;72.59;94435.09;5085692;28;20027;-91
2022/06/19 04:54:06;;;;;;;11.48;9.18;;;;;;;15.54;73.01;94434.63;5085484;28;20214;-91
2022/06/19 04:56:31;;;;;;;13.07;8.55;;;;;;;15.60;73.02;94436.00;5085426;28;20037;-91
2022/06/19 04:58:57;;;;;;;13.32;8.98;;;;;;;15.65;72.52;94441.16;5084506;28;20059;-92
2022/06/19 05:01:31;;;;;;;15.45;9.10;;;;;;;15.75;71.83;94440.81;5085666;28;20058;-91
2022/06/19 05:03:59;;;;;;;10.95;8.15;;;;;;;15.78;71.95;94434.75;5085348;28;20360;-91
2022/06/19 05:06:25;;;;;;;12.68;8.90;;;;;;;15.85;71.78;94439.56;5085597;28;20027;-91
2022/06/19 05:08:51;;;;;;;12.27;8.95;;;;;;;15.89;71.34;94437.78;5085310;28;20099;-91
2022/06/19 05:11:17;;;;;;;12.77;8.95;;;;;;;16.00;71.03;94438.19;5085184;28;20016;-90
2022/06/19 05:13:43;;;;;;;19.33;9.70;;;;;;;16.14;71.21;94441.34;5085439;28;20033;-91
2022/06/19 05:16:11;;;;;;;15.30;9.90;;;;;;;16.24;71.25;94446.28;5085067;28;20017;-91
2022/06/19 05:18:36;;;;;;;17.15;10.45;;;;;;;16.36;71.44;94445.50;5083803;28;20234;-92
2022/06/19 05:21:04;;;;;;;15.10;9.60;;;;;;;16.50;70.54;94447.06;5085117;28;20020;-91
2022/06/19 05:23:34;;;;;;;17.33;9.32;;;;;;;16.55;69.27;94441.50;5085052;28;20329;-90
2022/06/19 05:26:22;;;;;;;13.55;9.23;;;;;;;16.54;69.16;94451.44;5084976;28;20016;-91
2022/06/19 05:28:50;;;;;;;11.07;8.27;;;;;;;16.53;69.07;94452.59;5077523;28;20046;-88
2022/06/19 05:31:16;;;;;;;16.30;8.57;;;;;;;16.56;68.96;94457.28;5085025;28;20069;-87
2022/06/19 05:33:42;;;;;;;12.65;8.63;;;;;;;16.59;68.41;94451.25;5085228;28;20087;-89
2022/06/19 05:36:07;;;;;;;15.02;8.63;;;;;;;16.59;68.57;94453.94;5084808;28;20074;-91
2022/06/19 05:38:33;;;;;;;13.02;9.68;;;;;;;16.64;68.80;94455.59;5084987;28;20020;-90
2022/06/19 05:41:00;;;;;;;11.32;8.70;;;;;;;16.67;68.77;94456.81;5085378;28;20024;-90
2022/06/19 05:43:27;;;;;;;14.30;8.85;;;;;;;16.71;69.12;94460.41;5084891;28;20029;-89
2022/06/19 05:46:00;;;;;;;13.40;8.05;;;;;;;16.81;69.15;94454.59;5084691;28;20020;-89
2022/06/19 05:48:26;;;;;;;11.38;8.95;;;;;;;16.88;68.34;94454.84;5084306;28;20070;-89
2022/06/19 05:51:05;;;;;;;12.75;8.25;;;;;;;16.95;68.42;94449.66;5084596;28;20047;-90
2022/06/19 05:53:34;;;;;;;11.45;7.45;;;;;;;17.07;68.41;94446.16;5084494;28;20020;-89
2022/06/19 05:55:59;;;;;;;11.25;7.93;;;;;;;17.20;68.43;94449.63;5083177;28;20086;-89
2022/06/19 05:58:26;;;;;;;10.68;7.20;;;;;;;17.37;68.12;94454.75;5082944;28;20319;-89
2022/06/19 06:00:51;;;;;;;12.25;7.25;;;;;;;17.54;67.48;94458.28;5083106;28;20709;-89
2022/06/19 06:03:19;;;;;;;9.15;6.82;;;;;;;17.67;67.47;94454.44;5084159;28;20306;-90
2022/06/19 06:05:46;;;;;;;9.40;7.32;;;;;;;17.80;66.52;94455.94;5084145;28;20020;-89
2022/06/19 06:08:13;;;;;;;18.38;7.93;;;;;;;17.93;66.12;94448.63;5084132;28;20028;-89
2022/06/19 06:10:39;;;;;;;10.65;7.97;;;;;;;17.99;65.52;94451.81;5083717;28;20036;-89
2022/06/19 06:13:04;;;;;;;12.40;7.60;;;;;;;18.03;65.34;94448.13;5082662;28;20029;-89
2022/06/19 06:15:30;;;;;;;8.88;6.53;;;;;;;18.16;65.21;94445.34;5083895;28;20020;-89
2022/06/19 06:17:58;;;;;;;16.02;7.97;;;;;;;18.29;65.16;94444.13;5083801;28;20100;-89
2022/06/19 06:20:24;;;;;;;16.77;7.82;;;;;;;18.39;64.08;94445.53;5083901;28;20024;-89
2022/06/19 06:22:49;;;;;;;12.90;5.85;;;;;;;18.51;64.42;94444.66;5082409;28;20365;-89
2022/06/19 06:25:15;;;;;;;11.77;6.03;;;;;;;18.62;63.32;94451.88;5083770;28;20023;-89
2022/06/19 06:27:41;;;;;;;11.25;6.80;;;;;;;18.65;62.34;94451.16;5083805;28;20095;-90
2022/06/19 06:30:07;;;;;;;8.75;5.35;;;;;;;18.71;62.16;94449.00;5082997;28;20021;-89
2022/06/19 06:32:32;;;;;;;8.30;5.45;;;;;;;18.83;61.97;94456.25;5083693;28;20027;-89
2022/06/19 06:34:57;;;;;;;9.77;4.43;;;;;;;18.94;60.57;94451.09;5083347;28;20048;-89
2022/06/19 06:37:23;;;;;;;11.50;4.60;;;;;;;18.96;58.85;94460.41;5082023;28;20103;-89
2022/06/19 06:39:49;;;;;;;8.13;4.65;;;;;;;19.08;59.10;94454.09;5083654;28;20320;-89
2022/06/19 06:42:14;;;;;;;12.15;3.38;;;;;;;19.17;58.92;94443.91;5083954;28;20024;-89
2022/06/19 06:44:40;;;;;;;5.82;2.60;;;;;;;19.29;57.06;94442.97;5083703;28;20070;-88
2022/06/19 06:47:05;;;;;;;12.07;3.03;;;;;;;19.42;56.20;94432.81;5083307;28;20060;-89
2022/06/19 06:49:31;;;;;;;4.40;3.33;;;;;;;19.57;56.15;94444.69;5083224;28;20354;-88
2022/06/19 06:51:57;;;;;;;3.17;2.08;;;;;;;19.73;55.07;94437.31;5083472;28;20032;-90
2022/06/19 06:54:22;;;;;;;10.40;2.45;;;;;;;19.84;52.19;94434.81;5083495;28;20211;-88
2022/06/19 06:56:48;;;;;;;2.55;1.52;;;;;;;19.96;50.28;94439.28;5083516;28;20035;-89
2022/06/19 06:59:14;;;;;;;4.60;1.80;;;;;;;20.09;47.09;94429.06;5083207;28;20103;-90
2022/06/19 07:01:40;;;;;;;5.85;2.15;;;;;;;20.19;46.50;94432.00;5082158;28;20059;-88
2022/06/19 07:04:06;;;;;;;8.43;1.75;;;;;;;20.29;45.85;94429.81;5083603;28;20020;-90
2022/06/19 07:06:32;;;;;;;3.35;1.73;;;;;;;20.42;45.39;94431.22;5083464;28;20023;-90
2022/06/19 07:08:58;;;;;;;2.63;1.60;;;;;;;20.48;44.11;94429.75;5083114;28;20065;-89
2022/06/19 07:11:32;;;;;;;6.20;1.52;;;;;;;20.57;43.07;94421.38;5083192;28;20021;-90
2022/06/19 07:13:57;;;;;;;3.47;1.20;;;;;;;20.63;42.43;94419.97;5083012;28;20032;-90
2022/06/19 07:16:23;;;;;;;4.80;1.13;;;;;;;20.71;41.27;94429.00;5083040;28;20326;-90
2022/06/19 07:18:49;;;;;;;1.80;1.30;;;;;;;20.76;40.81;94420.53;5083291;28;20024;-90
2022/06/19 07:21:15;;;;;;;2.00;1.05;;;;;;;20.84;39.96;94425.72;5082967;28;20025;-90
2022/06/19 07:23:40;;;;;;;2.13;0.88;;;;;;;20.88;39.93;94425.75;5083625;28;20024;-90
2022/06/19 07:26:12;;;;;;;1.85;0.85;;;;;;;20.95;39.05;94420.44;5082234;28;20024;-90
2022/06/19 07:28:38;;;;;;;4.47;1.23;;;;;;;21.03;38.64;94413.97;5083241;28;20033;-90
2022/06/19 07:31:03;;;;;;;1.83;1.05;;;;;;;21.08;37.94;94414.81;5083391;28;20020;-90
2022/06/19 07:33:29;;;;;;;2.70;1.30;;;;;;;21.13;38.28;94419.94;5083413;28;20040;-89
2022/06/19 07:35:54;;;;;;;2.40;1.00;;;;;;;21.23;37.86;94416.56;5083199;28;20032;-90
2022/06/19 07:38:20;;;;;;;1.70;1.08;;;;;;;21.28;38.36;94413.53;5083495;28;20315;-90
2022/06/19 07:40:45;;;;;;;1.92;1.10;;;;;;;21.35;37.14;94408.22;5085352;28;20031;-90
2022/06/19 07:43:10;;;;;;;1.95;0.90;;;;;;;21.39;36.91;94408.25;5087441;28;20024;-89
2022/06/19 07:45:36;;;;;;;2.13;0.82;;;;;;;21.48;37.60;94405.28;5087171;28;20020;-90
2022/06/19 07:50:47;;;;;;;4.28;0.85;;;;;;;21.54;37.23;94417.38;5086865;28;20038;-89
2022/06/19 07:53:13;;;;;;;5.30;1.02;;;;;;;21.60;35.86;94419.38;5087091;28;20036;-89
2022/06/19 07:55:39;;;;;;;1.55;1.00;;;;;;;21.65;36.02;94415.56;5086787;28;20028;-89
2022/06/19 07:58:05;;;;;;;3.40;1.10;;;;;;;21.70;36.35;94425.31;5086766;28;20020;-89
2022/06/19 08:00:33;;;;;;;5.55;1.08;;;;;;;21.74;36.25;94418.00;5086552;28;20154;-89
2022/06/19 08:02:59;;;;;;;1.30;0.90;;;;;;;21.78;36.41;94418.81;5085538;28;20024;-90
2022/06/19 08:05:28;;;;;;;5.95;1.38;;;;;;;21.78;36.50;94414.16;5086597;28;20082;-90
2022/06/19 08:07:54;;;;;;;4.65;1.00;;;;;;;21.78;36.40;94418.81;5086165;28;20020;-89
2022/06/19 08:10:32;;;;;;;5.68;1.35;;;;;;;21.82;36.61;94409.56;5086330;28;20074;-89
2022/06/19 08:12:58;;;;;;;5.28;1.20;;;;;;;21.94;37.75;94416.66;5086151;28;20022;-87
2022/06/19 08:15:25;;;;;;;3.22;1.40;;;;;;;21.98;37.52;94413.97;5086099;28;20024;-90
2022/06/19 08:17:51;;;;;;;2.83;1.05;;;;;;;22.04;36.87;94404.34;5086460;28;20315;-90
2022/06/19 08:20:18;;;;;;;2.60;1.27;;;;;;;22.11;36.57;94407.13;5086218;28;20027;-89
2022/06/19 08:22:44;;;;;;;2.08;1.27;;;;;;;22.11;35.43;94404.44;5086118;28;20020;-89
2022/06/19 08:25:12;;;;;;;2.97;1.08;;;;;;;22.14;35.13;94414.53;5085973;28;20214;-89
2022/06/19 08:27:42;;;;;;;3.72;1.20;;;;;;;22.18;34.62;94406.41;5085960;28;20044;-89
2022/06/19 08:30:16;;;;;;;5.88;1.10;;;;;;;22.23;34.80;94401.47;5085084;28;20374;-91
2022/06/19 08:32:41;;;;;;;2.53;1.50;;;;;;;22.29;35.67;94403.81;5086170;28;20021;-91
2022/06/19 08:35:07;;;;;;;3.33;1.40;;;;;;;22.36;36.01;94393.03;5087539;28;20031;-93
2022/06/19 08:37:35;;;;;;;2.60;1.23;;;;;;;22.41;35.82;94407.06;5088156;28;20227;-94
2022/06/19 08:40:08;;;;;;;3.17;1.50;;;;;;;22.46;35.19;94400.50;5086619;28;20099;-90
2022/06/19 08:42:49;;;;;;;3.00;1.30;;;;;;;22.53;33.92;94407.91;5087157;28;20029;-93
2022/06/19 08:45:23;;;;;;;2.50;1.20;;;;;;;22.60;34.31;94402.53;5088250;28;20066;-89
2022/06/19 08:47:54;;;;;;;3.90;1.75;;;;;;;22.64;33.20;94398.69;5086941;28;20159;-91
2022/06/19 08:50:39;;;;;;;3.75;1.40;;;;;;;22.70;33.43;94390.22;5084690;28;20040;-90
2022/06/19 08:53:20;;;;;;;2.15;1.40;;;;;;;22.81;32.13;94396.47;5084713;28;20032;-90
2022/06/19 08:56:12;;;;;;;5.43;1.55;;;;;;;22.82;32.81;94392.63;5085483;28;20028;-90
2022/06/19 08:58:49;;;;;;;;;;;;;;;22.83;33.05;94396.88;5087473;28;20032;-90
2022/06/19 09:01:30;;;;;;;2.25;1.08;;;;;;;22.83;32.60;94394.94;5087007;28;19905;-90
2022/06/19 09:07:21;;;;;;;5.30;1.38;;;;;;;22.84;32.20;94396.50;5086529;28;20079;-90
2022/06/19 09:10:26;;;;;;;2.22;1.30;;;;;;;22.86;32.87;94389.91;5085460;28;20093;-90
2022/06/19 09:13:11;;;;;;;2.53;1.27;;;;;;;22.96;33.39;94387.28;5085272;28;20020;-90
2022/06/19 09:15:59;;;;;;;2.60;1.15;;;;;;;23.04;32.04;94393.56;5084865;28;20219;-90
2022/06/19 09:18:33;;;;;;;5.43;1.45;;;;;;;23.10;32.19;94385.81;5085116;28;20016;-89
2022/06/19 09:21:37;;;;;;;7.60;2.42;;;;;;;23.20;32.65;94387.81;5085041;28;20311;-90
2022/06/19 09:24:09;;;;;;;8.40;1.30;;;;;;;23.30;32.24;94383.59;5085073;28;20203;-90
2022/06/19 09:26:44;;;;;;;4.80;1.60;;;;;;;23.39;31.31;94373.91;5084926;28;20024;-90
2022/06/19 09:29:33;;;;;;;3.05;1.00;;;;;;;23.40;31.39;94367.31;5084775;28;20266;-90
2022/06/19 09:32:20;;;;;;;2.00;1.17;;;;;;;23.49;32.23;94369.69;5083962;28;20041;-89
2022/06/19 09:35:04;;;;;;;5.30;1.20;;;;;;;23.54;31.72;94371.25;5084670;28;20091;-90
2022/06/19 09:37:39;;;;;;;1.85;0.80;;;;;;;23.46;30.80;94364.22;5084213;28;20044;-89
2022/06/19 09:40:16;;;;;;;3.53;0.80;;;;;;;23.46;30.89;94369.66;5084423;28;20028;-90
2022/06/19 09:42:48;;;;;;;1.73;1.05;;;;;;;23.47;29.83;94363.06;5083413;28;20052;-90
2022/06/19 09:45:20;;;;;;;4.13;1.02;;;;;;;23.53;30.62;94358.78;5084319;28;20024;-90
2022/06/19 09:47:49;;;;;;;5.50;0.98;;;;;;;23.64;31.35;94365.06;5084164;28;20086;-89
2022/06/19 09:50:24;;;;;;;1.88;1.10;;;;;;;23.55;31.94;94372.78;5084423;28;20040;-90
2022/06/19 09:53:04;;;;;;;10.80;1.20;;;;;;;23.67;31.35;94358.88;5084256;28;20033;-90
2022/06/19 09:55:41;;;;;;;1.63;0.90;;;;;;;23.86;31.18;94357.78;5084203;28;20044;-90
2022/06/19 09:58:22;;;;;;;1.92;1.00;;;;;;;23.95;29.87;94360.88;5083898;28;20020;-90
2022/06/19 10:00:51;;;;;;;1.17;0.77;;;;;;;24.05;30.06;94364.78;5083967;28;20020;-90
2022/06/19 10:03:33;;;;;;;2.10;1.00;;;;;;;24.16;30.87;94351.97;5083288;28;20016;-90
2022/06/19 10:06:09;;;;;;;1.30;0.80;;;;;;;24.29;30.14;94354.31;5083932;28;20061;-90
2022/06/19 10:08:54;;;;;;;2.72;0.80;;;;;;;24.36;29.66;94346.13;5083741;28;20337;-90
2022/06/19 10:11:37;;;;;;;17.00;1.13;;;;;;;24.46;28.88;94348.06;5083757;28;20091;-90
2022/06/19 10:14:10;;;;;;;2.45;0.73;;;;;;;24.50;29.11;94338.00;5082430;28;20031;-90
2022/06/19 10:16:50;;;;;;;1.60;0.93;;;;;;;24.53;29.22;94333.72;5083755;28;20017;-90
2022/06/19 10:19:20;;;;;;;4.50;1.10;;;;;;;24.55;28.92;94337.59;5083677;28;20017;-90
2022/06/19 10:22:13;;;;;;;2.33;0.90;;;;;;;24.60;29.11;94329.03;5083662;28;20095;-90
2022/06/19 10:25:11;;;;;;;1.52;0.60;;;;;;;24.72;29.12;94330.56;5082768;28;20052;-91
2022/06/19 10:28:15;;;;;;;2.15;1.05;;;;;;;24.85;29.80;94324.69;5083629;28;20039;-90
2022/06/19 10:31:19;;;;;;;1.98;0.90;;;;;;;24.92;30.16;94335.59;5083532;28;20322;-91
2022/06/19 10:33:51;;;;;;;1.52;0.80;;;;;;;25.06;30.41;94326.63;5083506;28;20318;-91
2022/06/19 10:36:33;;;;;;;2.10;1.05;;;;;;;25.10;28.31;94321.94;5083578;28;20043;-89
2022/06/19 10:39:08;;;;;;;2.60;0.95;;;;;;;25.20;28.96;94321.88;5083577;28;20059;-90
2022/06/19 10:42:01;;;;;;;2.35;0.98;;;;;;;25.28;28.99;94322.66;5083718;28;20044;-90
2022/06/19 10:44:35;;;;;;;2.40;0.90;;;;;;;25.45;28.21;94322.97;5083548;28;20073;-90
2022/06/19 10:47:14;;;;;;;2.88;1.23;;;;;;;25.54;28.21;94326.03;5083225;28;20095;-91
2022/06/19 10:49:58;;;;;;;4.63;1.00;;;;;;;25.70;28.45;94340.00;5083416;28;20038;-90
2022/06/19 10:52:47;;;;;;;2.35;0.88;;;;;;;25.79;28.10;94318.50;5082440;28;20024;-90
2022/06/19 10:55:26;;;;;;;2.67;1.13;;;;;;;25.99;28.45;94328.94;5083160;28;20020;-90
2022/06/19 10:58:18;;;;;;;1.67;0.88;;;;;;;25.90;27.89;94315.72;5083606;28;20021;-90
2022/06/19 11:00:44;;;;;;;5.20;0.90;;;;;;;25.71;27.04;94316.22;5083255;28;20031;-90
2022/06/19 11:06:12;;;;;;;2.53;0.80;;;;;;;25.63;28.33;94315.47;5083139;28;20384;-90
2022/06/19 11:08:42;;;;;;;2.92;0.90;;;;;;;25.82;28.31;94316.91;5083092;28;20091;-90
2022/06/19 11:11:14;;;;;;;1.70;0.82;;;;;;;25.98;28.77;94319.19;5083382;28;20021;-91
2022/06/19 11:14:30;;;;;;;3.05;1.02;;;;;;;26.13;27.62;94317.13;5082082;28;20101;-91
2022/06/19 11:17:01;;;;;;;1.73;1.20;;;;;;;26.26;27.92;94301.81;5065957;28;20378;-91
2022/06/19 11:19:45;;;;;;;3.42;0.80;;;;;;;26.43;28.02;94297.38;5065890;28;20100;-91
2022/06/19 11:22:32;;;;;;;4.18;1.02;;;;;;;26.57;27.96;94301.94;5080966;28;20028;-91
2022/06/19 11:25:14;;;;;;;3.35;0.75;;;;;;;26.74;26.77;94298.25;5087310;28;20215;-91
2022/06/19 11:27:57;;;;;;;5.28;1.13;;;;;;;26.84;26.66;94296.59;5087353;28;20024;-91
2022/06/19 11:30:32;;;;;;;2.85;0.80;;;;;;;26.99;26.99;94295.28;5087404;28;20025;-90
2022/06/19 11:32:58;;;;;;;1.55;0.85;;;;;;;27.12;26.50;94292.78;5087121;28;20033;-90
2022/06/19 11:35:24;;;;;;;0.95;0.70;;;;;;;27.25;26.44;94293.03;5087124;28;20415;-91
2022/06/19 11:37:54;;;;;;;3.20;0.98;;;;;;;27.28;26.95;94288.72;5087241;28;20096;-91
2022/06/19 11:40:29;;;;;;;2.03;0.80;;;;;;;27.33;26.56;94291.00;5086947;28;20020;-91
2022/06/19 11:42:57;;;;;;;5.57;1.23;;;;;;;27.37;25.80;94289.00;5086906;28;20028;-92
2022/06/19 11:45:25;;;;;;;2.10;0.90;;;;;;;27.38;24.88;94283.13;5085727;28;20025;-91
2022/06/19 11:47:56;;;;;;;1.45;0.75;;;;;;;27.44;25.36;94285.38;5086704;28;20052;-92
2022/06/19 11:50:46;;;;;;;1.83;0.75;;;;;;;27.58;25.63;94279.75;5086624;28;20361;-91
2022/06/19 11:53:30;;;;;;;2.45;1.30;;;;;;;27.84;26.20;94280.16;5086079;28;20314;-91
2022/06/19 11:56:18;;;;;;;4.95;0.80;;;;;;;27.87;26.25;94277.38;5085619;28;20052;-92